createdAt,value
2023-02-09T00:05:03.790Z,4.22
2023-02-09T00:15:09.334Z,4.32
2023-02-09T00:25:12.503Z,4.55
2023-02-09T00:35:17.240Z,3.95
2023-02-09T00:45:20.116Z,4.70
2023-02-09T00:55:24.214Z,4.93
2023-02-09T01:05:27.129Z,3.90
2023-02-09T01:15:31.833Z,4.97
2023-02-09T01:25:35.057Z,3.78
2023-02-09T01:35:42.043Z,3.97
2023-02-09T01:45:46.916Z,3.88
2023-02-09T01:55:56.235Z,3.40
2023-02-09T02:06:03.581Z,4.18
2023-02-09T02:16:19.152Z,2.92
2023-02-09T02:26:46.880Z,2.75
2023-02-09T02:37:00.828Z,3.47
2023-02-09T02:47:07.953Z,3.45
2023-02-09T02:57:17.648Z,3.45
2023-02-09T03:07:20.942Z,3.58
2023-02-09T03:17:37.470Z,4.13
2023-02-09T03:27:44.207Z,3.20
2023-02-09T03:37:48.242Z,3.80
2023-02-09T03:47:50.948Z,3.40
2023-02-09T03:57:55.373Z,4.20
2023-02-09T04:08:00.424Z,2.85
2023-02-09T04:18:05.950Z,4.07
2023-02-09T04:28:09.570Z,3.47
2023-02-09T04:38:14.160Z,3.75
2023-02-09T04:48:18.549Z,3.63
2023-02-09T04:58:40.804Z,4.15
2023-02-09T05:08:44.343Z,3.25
2023-02-09T05:18:50.263Z,3.55
2023-02-09T05:28:53.012Z,3.60
2023-02-09T05:38:57.115Z,3.53
2023-02-09T05:48:59.788Z,3.35
2023-02-09T05:59:04.770Z,3.97
2023-02-09T06:09:08.599Z,3.30
2023-02-09T06:19:15.731Z,3.33
2023-02-09T06:29:18.518Z,3.65
2023-02-09T06:39:22.525Z,3.72
2023-02-09T06:49:26.484Z,3.88
2023-02-09T06:59:32.441Z,3.13
2023-02-09T07:09:35.302Z,4.65
2023-02-09T07:19:40.136Z,4.57
2023-02-09T07:29:42.898Z,4.22
2023-02-09T07:39:47.189Z,4.95
2023-02-09T07:49:49.999Z,4.88
2023-02-09T07:59:54.328Z,4.25
2023-02-09T08:09:57.250Z,3.63
2023-02-09T08:20:05.222Z,4.05
2023-02-09T08:30:09.014Z,4.25
2023-02-09T08:40:15.206Z,3.38
2023-02-09T08:50:18.275Z,4.10
2023-02-09T09:00:23.448Z,3.95
2023-02-09T09:10:26.202Z,5.00
2023-02-09T09:20:30.485Z,5.40
2023-02-09T09:30:33.897Z,4.15
2023-02-09T09:40:41.965Z,4.90
2023-02-09T09:50:45.165Z,4.97
2023-02-09T10:00:51.183Z,5.07
2023-02-09T10:10:58.624Z,5.35
2023-02-09T10:21:07.362Z,5.60
2023-02-09T10:31:16.953Z,4.93
2023-02-09T10:41:22.500Z,5.80
2023-02-09T10:51:29.286Z,5.22
2023-02-09T11:01:41.889Z,5.63
2023-02-09T11:11:46.179Z,5.90
2023-02-09T11:22:01.534Z,6.15
2023-02-09T11:32:18.470Z,6.20
2023-02-09T11:42:45.558Z,6.30
2023-02-09T11:52:54.180Z,6.82
2023-02-09T12:03:01.854Z,7.22
2023-02-09T12:13:14.875Z,6.10
2023-02-09T12:23:31.717Z,7.00
2023-02-09T12:33:37.873Z,7.13
2023-02-09T12:43:50.468Z,6.55
2023-02-09T12:53:55.933Z,7.60
2023-02-09T13:04:04.011Z,8.27
2023-02-09T13:14:10.573Z,8.52
2023-02-09T13:24:17.248Z,7.65
2023-02-09T13:34:29.858Z,6.82
2023-02-09T13:44:35.093Z,7.47
2023-02-09T13:54:38.140Z,8.68
2023-02-09T14:04:42.376Z,8.43
2023-02-09T14:15:09.796Z,7.75
2023-02-09T14:25:25.093Z,8.98
2023-02-09T14:35:30.407Z,8.23
2023-02-09T14:45:40.193Z,8.43
2023-02-09T14:55:44.576Z,8.40
2023-02-09T15:05:50.212Z,6.32
2023-02-09T15:15:52.982Z,7.88
2023-02-09T15:25:57.040Z,9.05
2023-02-09T15:36:00.020Z,8.65
2023-02-09T15:46:22.203Z,8.18
2023-02-09T15:56:25.378Z,9.23
2023-02-09T16:06:29.847Z,8.60
2023-02-09T16:16:33.119Z,9.02
2023-02-09T16:26:37.432Z,9.55
2023-02-09T16:36:40.379Z,9.75
2023-02-09T16:46:45.390Z,10.35
2023-02-09T16:56:54.020Z,11.23
2023-02-09T17:06:59.002Z,11.63
2023-02-09T17:17:02.272Z,12.90
2023-02-09T17:27:06.613Z,13.43
2023-02-09T17:37:15.552Z,13.70
2023-02-09T17:48:08.403Z,13.70
2023-02-09T17:58:13.582Z,16.50
2023-02-09T18:08:16.533Z,13.85
2023-02-09T18:18:23.116Z,15.77
2023-02-09T18:28:27.142Z,15.80
2023-02-09T18:38:31.333Z,15.50
2023-02-09T18:48:34.298Z,13.75
2023-02-09T18:58:38.797Z,13.13
2023-02-09T19:08:41.676Z,14.13
2023-02-09T19:18:46.332Z,14.82
2023-02-09T19:28:49.307Z,13.95
2023-02-09T19:38:53.620Z,14.55
2023-02-09T19:48:58.349Z,13.50
2023-02-09T19:59:02.486Z,15.52
2023-02-09T20:09:05.685Z,14.30
2023-02-09T20:19:10.288Z,14.00
2023-02-09T20:29:13.441Z,15.07
2023-02-09T20:39:18.952Z,15.07
2023-02-09T20:49:22.234Z,14.90
2023-02-09T20:59:26.576Z,14.13
2023-02-09T21:09:30.250Z,13.65
2023-02-09T21:19:36.063Z,15.32
2023-02-09T21:29:38.865Z,15.82
2023-02-09T21:39:45.455Z,15.43
2023-02-09T21:49:48.370Z,15.73
2023-02-09T21:59:52.431Z,14.55
2023-02-09T22:09:55.149Z,14.07
2023-02-09T22:19:59.488Z,13.50
2023-02-09T22:30:02.257Z,12.25
2023-02-09T22:40:07.465Z,13.75
2023-02-09T22:50:10.627Z,13.38
2023-02-09T23:00:17.100Z,14.07
2023-02-09T23:10:22.674Z,13.50
2023-02-09T23:20:27.384Z,13.23
2023-02-09T23:30:30.168Z,13.25
2023-02-09T23:40:34.382Z,10.23
2023-02-09T23:50:37.116Z,10.35
